Tiempo atmosférico en la estación meteorológica de Santander, Cantabria (52 m.)



Fecha
DESCASC
Temp. máxima en grados centígrados (hora)
DESCASC
Temp. mínima en grados centígrados (hora)
DESCASC
Temp. media en grados centígrados
DESCASC
Racha de viento máxima en m/sg (hora)
DESCASC
Velocidad máxima media en intervalos de 10 minutos(hora)
DESCASC
Precipitaciones diarias en mm
DESCASC
Precipitaciones de 00:00 a 06:00 en mm
DESCASC
Precipitaciones de 06:00 a 12:00 en mm
DESCASC
Precipitaciones de 12:00 a 18:00 en mm
DESCASC
Precipitaciones de 18:00 a 24:00 en mm
DESCASC
06-07-2020 19.9 (16:00) 17.1 (23:59) 18.5 10 (09:00) 7.78 (09:30) 0.8 0.8 0 0 0
05-07-2020 22.3 (13:10) 16.8 (05:30) 19.5 5.28 (14:10) 4.17 (14:10) 0 0 0 0 0
04-07-2020 22.2 (17:30) 14.6 (04:20) 18.4 5 (15:50) 4.17 (16:00) 0 0 0 0 0
03-07-2020 20.8 (16:50) 14.8 (01:50) 17.8 6.94 (00:30) 5 (17:40) 0 0 0 0 0
02-07-2020 18 (16:50) 14.9 (00:00) 16.4 8.89 (12:50) 6.11 (12:50) 3.8 1.2 2.2 0.4 0
01-07-2020 22 (11:50) 16.5 (00:00) 19.3 9.17 (18:30) 6.94 (18:10) 0.4 0 0 0 0.4
30-06-2020 22.8 (13:50) 16 (00:00) 19.4 6.67 (16:30) 5.28 (17:50) 0 0 0 0 0
29-06-2020 20.6 (15:40) 16.6 (00:00) 18.6 7.22 (01:30) 5 (01:30) 0 0 0 0 0
28-06-2020 22.9 (14:30) 17.5 (00:00) 20.2 6.39 (18:40) 4.72 (23:40) 2 0 0 0 2
27-06-2020 23.6 (17:10) 16.4 (00:00) 20 8.06 (17:30) 5.28 (18:30) 0 0 0 0 0
26-06-2020 19.2 (20:00) 16.1 (00:00) 17.7 6.67 (23:00) 5 (22:00) 0 0 0 0 0
25-06-2020 20.2 (12:50) 17.2 (00:00) 18.7 9.72 (09:30) 6.67 (13:00) 2.2 0 0 0.8 1.4
24-06-2020 21.2 (16:50) 17.5 (00:00) 19.4 11.39 (19:00) 8.06 (07:30) 0 0 0 0 0
23-06-2020 21.7 (17:50) 16.5 (00:00) 19.1 11.39 (12:10) 9.17 (11:10) 0 0 0 0 0
22-06-2020 20.9 (13:10) 17.7 (00:00) 19.3 13.06 (17:20) 10.28 (17:30) 0 0 0 0 0
21-06-2020 22.4 (17:10) 16.1 (00:00) 19.3 5.56 (00:30) 4.17 (00:10) 0 0 0 0 0
20-06-2020 21.2 (15:30) 14.8 (00:00) 18 7.5 (18:10) 5.83 (18:20) 0 0 0 0 0
19-06-2020 20 (14:30) 15.2 (00:00) 17.6 5.28 (16:40) 3.89 (16:30) 0 0 0 0 0
18-06-2020 18.4 (18:20) 13.5 (00:00) 15.9 6.67 (11:20) 4.17 (11:20) 1 1 0 0 0
17-06-2020 18.6 (13:50) 14.6 (00:00) 16.6 11.94 (06:50) 8.33 (08:10) 1 1 0 0 0
16-06-2020 18.5 (17:50) 14.7 (00:00) 16.6 11.39 (16:30) 7.5 (21:40) 1.6 0.2 0.8 0.6 0
15-06-2020 20 (13:50) 15.3 (00:00) 17.7 7.5 (16:00) 6.11 (16:00) 0.8 0 0 0 0.8
14-06-2020 19.9 (12:40) 14.2 (00:00) 17 8.06 (20:00) 5.56 (20:00) 0 0 0 0 0
13-06-2020 19.6 (13:40) 13.3 (00:00) 16.5 13.61 (01:20) 9.72 (01:10) 6.2 6.2 0 0 0
12-06-2020 17.7 (15:00) 10.8 (00:00) 14.3 19.72 (10:50) 13.61 (11:10) 2.6 0.6 0 2 0
11-06-2020 16.9 (10:50) 10.8 (00:00) 13.8 15.83 (13:10) 10.83 (13:10) 11.8 0 1.8 2.8 7.2
10-06-2020 18.1 (14:50) 13.3 (00:00) 15.7 6.39 (01:50) 4.17 (03:00) 0.4 0.4 0 0 0

Gráficas

Temp. máximas Temp. mínimas Temp. medias Precipitaciones Rachas de viento máximas Velocidades máximas media en intervalos de 10 minutos

Datos horarios

Fecha y hora oficial Temperatura (ºC) Velocidad del viento (km/h) Dirección del viento Racha (km/h) Dirección de racha Precipitación (mm) Presión (hPa) Tendencia (hPa) Humedad (%)
2020-07-09 23:00:00 19.1 8 Noroeste 16 Noroeste 0 1013.4 0.4 89
2020-07-09 22:00:00 19.5 13 Noroeste 23 Noroeste 0 1012.2 -0.5 88
2020-07-09 21:00:00 20.5 8 Oeste 15 Noroeste 0 1013.3 -- 83
2020-07-09 20:00:00 20.7 8 Noroeste 17 Noroeste 0 1013 -- 82
2020-07-09 19:00:00 21.3 10 Noroeste 21 Noroeste 0 1012.7 -- 81
2020-07-09 18:00:00 21.5 14 Noroeste 23 Noroeste 0 1012.6 -- 81
2020-07-09 17:00:00 22.2 14 Oeste 19 Noroeste 0 1012.7 -- 78
2020-07-09 16:00:00 21.6 12 Noroeste 20 Noroeste 0 1013 -- 79
2020-07-09 15:00:00 21.6 11 Noroeste 19 Norte 0 1013.3 -- 80
2020-07-09 14:00:00 21.5 10 Noroeste 19 Noroeste 0 1013.2 -- 82
2020-07-09 13:00:00 21.4 13 Noroeste 20 Noroeste 0 1013.2 -- 83
2020-07-09 12:00:00 22 14 Noroeste 21 Oeste 0 1013 -- 83
2020-07-09 11:00:00 21.7 14 Oeste 22 Oeste 0 1012.8 -- 84
2020-07-09 10:00:00 21.1 13 Noroeste 19 Oeste 0 1012.7 -- 86
2020-07-09 09:00:00 20.4 13 Oeste 17 Oeste 0 1012.7 -- 89
2020-07-09 08:00:00 18.7 10 Sudoeste 17 Sudoeste 0 1012.2 -- 94
2020-07-09 07:00:00 18.2 9 Sudoeste 15 Sudoeste 0 1012 -- 96
2020-07-09 06:00:00 18.4 9 Sudoeste 15 Oeste 0 1011.2 -- 96
2020-07-09 05:00:00 18.5 9 Oeste 15 Sudoeste 0 1010.9 -- 94
2020-07-09 04:00:00 18.7 4 Sudoeste 11 Norte 0 1010.7 -- 92
2020-07-09 03:00:00 19 8 Sudoeste 13 Sudoeste 0 1011.7 -- 90
2020-07-09 02:00:00 19.2 8 Sur 14 Sur 0 1012.2 -- 89
2020-07-09 01:00:00 19.4 6 Este 14 Nordeste 0 1012.3 -- 89
2020-07-09 00:00:00 19.5 8 Nordeste 13 Norte 0 1012 -- 87
2020-07-08 23:00:00 19.7 5 Sudeste 12 Nordeste 0 1012.8 -- 85
2020-07-08 22:00:00 19.8 9 Nordeste 25 Nordeste 0 1010.8 -- 85
2020-07-08 21:00:00 20.5 17 Nordeste 23 Nordeste 0 1009.9 -- 85
2020-07-08 20:00:00 21.6 10 Este 16 Este 0 1010.4 -- 79
2020-07-08 19:00:00 22.1 12 Este 30 Este 0 1010.1 -- 77
2020-07-08 18:00:00 22.2 21 Este 28 Nordeste 0 1010 -- 78
2020-07-08 17:00:00 22.2 19 Este 30 Este 0 1010.2 -- 79
2020-07-08 16:00:00 22.7 24 Este 34 Nordeste 0 1010.3 -- 76
2020-07-08 15:00:00 22.7 26 Nordeste 35 Nordeste 0 1010.2 -- 76
2020-07-08 14:00:00 22.7 21 Este 31 Nordeste 0 1010.8 -- 77
2020-07-08 13:00:00 21.9 25 Nordeste 32 Nordeste 0 1010.5 -- 79
2020-07-08 12:00:00 22 18 Nordeste 28 Este 0 1011.3 -- 77
2020-07-08 11:00:00 21.2 21 Este 28 Nordeste 0 1011 -- 78
2020-07-08 10:00:00 20.7 15 Este 21 Este 0 1011 -- 81
2020-07-08 09:00:00 20.3 15 Este 20 Este 0 1010.8 -- 79
2020-07-08 08:00:00 18.6 12 Este 19 Sudeste 0 1010.6 -- 84
2020-07-08 07:00:00 17.3 13 Este 18 Este 0 1010.4 -- 89
2020-07-08 06:00:00 16.9 11 Este 16 Sudeste 0 1010.6 -- 90
2020-07-08 05:00:00 17 10 Sudeste 23 Este 0 1010.7 -- 88
2020-07-08 04:00:00 17.5 14 Este 22 Este 0 1011.1 -- 85
2020-07-08 03:00:00 18.3 20 Este 31 Este 0 1011.5 -- 82
2020-07-08 02:00:00 18.1 16 Este 27 Este 0 1012.1 -- 82
2020-07-08 01:00:00 18.7 20 Este 35 Este 0 1012.3 -- 82
2020-07-08 00:00:00 18.9 26 Este 35 Este 0 1012.3 -- 83
2020-07-07 23:00:00 19 27 Este 39 Este 0 1012.5 -- 79
2020-07-07 22:00:00 19.3 30 Este 41 Este 0 1012.1 -- 78
2020-07-07 21:00:00 20 31 Este 41 Este 0 1011.9 -- 74
2020-07-07 20:00:00 20.3 31 Este 39 Este 0 1011.9 -0.8 73
2020-07-07 19:00:00 20.8 27 Este 39 Este 0 1011.9 -1.2 77
2020-07-07 18:00:00 21.2 26 Este 39 Este 0 1012.3 -0.9 74
2020-07-07 17:00:00 21.4 28 Este 41 Este 0 1012.7 -0.8 71
2020-07-07 16:00:00 21.1 31 Este 42 Este 0 1013.1 -0.7 71
2020-07-07 15:00:00 20.9 32 Este 43 Este 0 1013.2 -1.1 69
2020-07-07 14:00:00 20.9 30 Este 41 Nordeste 0 1013.5 -0.9 64
2020-07-07 13:00:00 20.9 27 Este 35 Este 0 1013.8 -1 62
2020-07-07 12:00:00 20.8 24 Este 34 Este 0 1014.3 -0.5 60
2020-07-07 11:00:00 20.3 19 Este 29 Este 0 1014.4 -0.4 63
2020-07-07 10:00:00 19.4 12 Sudeste 17 Sudeste 0 1014.8 -0.1 65
2020-07-07 09:00:00 16.9 11 Sudeste 17 Sudeste 0 1014.8 -0.4 74
2020-07-07 08:00:00 16.1 11 Sudeste 16 Sudeste 0 1014.8 -1 76
2020-07-07 07:00:00 15.8 14 Sudeste 18 Sudeste 0 1014.9 -- 78
2020-07-07 06:00:00 16.1 10 Sudeste 18 Este 0 1015.2 -- 76
2020-07-07 05:00:00 15.8 10 Este 22 Sudeste 0 1015.8 -- 75
2020-07-07 04:00:00 16 12 Este 21 Este 0 1016.1 -- 79
2020-07-07 03:00:00 16.7 16 Este 23 Este 0 1016.7 -- 73
2020-07-07 02:00:00 16.9 18 Este 23 Este 0 1017.1 -- 73
2020-07-07 01:00:00 17 13 Este 24 Este 0 1017.6 -- 72
2020-07-07 00:00:00 17.1 15 Este 22 Nordeste 0 1018 -- 73
2020-07-06 23:00:00 17.2 15 Este 21 Nordeste 0 1018.2 -- 74
2020-07-06 22:00:00 17.7 14 Nordeste 24 Nordeste 0 1017.9 -- 74
2020-07-06 21:00:00 18.1 18 Nordeste 26 Nordeste 0 1017.9 -- 73
2020-07-06 20:00:00 18.5 20 Nordeste 27 Nordeste 0 1018 -- 74
2020-07-06 19:00:00 19 15 Este 24 Este 0 1018.2 -- 72
2020-07-06 18:00:00 19.1 16 Este 22 Este 0 1018.5 -- 73
2020-07-06 17:00:00 19.6 17 Este 24 Este 0 1018.8 -- 73
2020-07-06 16:00:00 19.8 19 Nordeste 27 Nordeste 0 1018.9 -- 71
2020-07-06 15:00:00 19 21 Nordeste 31 Nordeste 0 1019.1 -- 77
2020-07-06 14:00:00 18.6 22 Nordeste 31 Nordeste 0 1019.1 -- 81
2020-07-06 13:00:00 18.5 24 Nordeste 32 Nordeste 0 1018.9 -- 82
2020-07-06 12:00:00 18.6 24 Nordeste 34 Nordeste 0 1018.7 -- 85
2020-07-06 11:00:00 17.9 28 Nordeste 33 Nordeste 0 1018.3 -- 94
2020-07-06 10:00:00 17.8 26 Nordeste 34 Nordeste 0 1018 -- 96
2020-07-06 09:00:00 17.7 27 Nordeste 36 Nordeste 0 1017.6 -- 98
2020-07-06 08:00:00 18.2 15 Norte 25 Norte 0 1017.2 -- 95
2020-07-06 07:00:00 18.1 13 Norte 21 Norte 0 1017 -- 96
2020-07-06 06:00:00 17.9 16 Norte 27 Norte 0.2 1016.8 -- 99
2020-07-06 05:00:00 17.9 17 Norte 24 Norte 0.6 1016.7 -- 99
2020-07-06 04:00:00 18.3 12 Noroeste 19 Noroeste 0 1016.8 -- 98
2020-07-06 03:00:00 18.3 8 Oeste 16 Oeste 0 1017 -- 98
2020-07-06 02:00:00 18.3 12 Oeste 19 Oeste 0 1017.4 -- 97
2020-07-06 01:00:00 19 8 Noroeste 21 Noroeste 0 1017.7 -- 94
2020-07-06 00:00:00 19.5 13 Noroeste 19 Noroeste 0 1017.7 -- 86
2020-07-05 23:00:00 19.3 13 Noroeste 18 Noroeste 0 1017.7 -- 85
2020-07-05 22:00:00 19.3 10 Noroeste 15 Noroeste 0 1016.9 -- 86
2020-07-05 21:00:00 20.4 7 Noroeste 15 Norte 0 1016.4 -- 82
2020-07-05 20:00:00 20.9 9 Norte 15 Norte 0 1016.3 -- 81
2020-07-05 19:00:00 21.3 8 Norte 14 Norte 0 1016.2 -- 82
2020-07-05 18:00:00 21.5 10 Norte 14 Norte 0 1016.7 -- 80
2020-07-05 17:00:00 21.7 9 Norte 15 Norte 0 1016.9 -- 77
2020-07-05 16:00:00 21.7 13 Norte 15 Norte 0 1016.7 -- 80
2020-07-05 15:00:00 22.3 13 Nordeste 19 Nordeste 0 1016.5 -- 76
2020-07-05 14:00:00 21.9 15 Nordeste 18 Nordeste 0 1016.7 -- 78
2020-07-05 13:00:00 22 11 Nordeste 14 Nordeste 0 1016.6 -- 77
2020-07-05 12:00:00 21.6 8 Nordeste 11 Nordeste 0 1016.6 -- 75
2020-07-05 11:00:00 21 6 Nordeste 9 Nordeste 0 1016.8 -- 77
2020-07-05 10:00:00 20.7 5 Nordeste 7 Nordeste 0 1016.8 -- 74
2020-07-05 09:00:00 20.5 4 Sudoeste 8 Sur 0 1016.6 -- 73
2020-07-05 08:00:00 19.4 2 Sur 7 Sudoeste 0 1016.8 -- 79
2020-07-05 07:00:00 17.7 5 Sudoeste 7 Sudoeste 0 1016.8 -- 83
2020-07-05 06:00:00 17.2 0 Calma 11 Sur 0 1016.6 -- 85
2020-07-05 05:00:00 17.1 8 Sur 9 Sur 0 1016.6 -- 90
2020-07-05 04:00:00 17.5 3 Sur 4 Sur 0 1016.8 -- 88
2020-07-05 03:00:00 17.6 0 Calma 4 Sudeste 0 1017.3 -- 87
2020-07-05 02:00:00 18 0 Calma 3 Nordeste 0 1017.9 -- 83
2020-07-05 01:00:00 18.6 3 Sur 8 Sudoeste 0 1018.2 -- 77
2020-07-05 00:00:00 18.5 5 Sudoeste 7 Sudoeste 0 1018.5 -- 78
2020-07-04 23:00:00 18.5 0 Calma 6 Sur 0 1018.4 -- 74
2020-07-04 22:00:00 19 3 Este 8 Nordeste 0 1018.2 -- 75
2020-07-04 21:00:00 20.1 7 Nordeste 12 Nordeste 0 1018 -- 71
2020-07-04 20:00:00 21 9 Nordeste 12 Nordeste 0 1017.5 -- 67
2020-07-04 19:00:00 21.1 10 Nordeste 13 Nordeste 0 1017.2 -- 67
2020-07-04 18:00:00 21.5 10 Nordeste 17 Nordeste 0 1017.6 -- 66
2020-07-04 17:00:00 21.8 12 Nordeste 18 Nordeste 0 1017.9 -- 66
2020-07-04 16:00:00 21.7 15 Nordeste 18 Nordeste 0 1018 -- 67
2020-07-04 15:00:00 21.5 12 Nordeste 15 Nordeste 0 1017.9 -- 71
2020-07-04 14:00:00 20.7 8 Nordeste 13 Norte 0 1018.3 -- 75
2020-07-04 13:00:00 19.9 9 Norte 14 Noroeste 0 1018.6 -- 75
2020-07-04 12:00:00 19.1 11 Norte 16 Norte 0 1018.7 -- 79
2020-07-04 11:00:00 19.1 8 Norte 13 Norte 0 1018.2 -- 76
2020-07-04 10:00:00 19.6 5 Oeste 10 Oeste 0 1018 -- 70
2020-07-04 09:00:00 18.5 6 Sudoeste 12 Sur 0 1018.1 -- 72
2020-07-04 08:00:00 16.2 10 Sur 15 Sur 0 1017.8 -- 80
2020-07-04 07:00:00 14.9 11 Sur 14 Sur 0 1017.5 -- 86
2020-07-04 06:00:00 14.8 9 Sur 12 Sur 0 1017.4 -- 88
2020-07-04 05:00:00 14.9 7 Sur 8 Sur 0 1017.5 -- 89
2020-07-04 04:00:00 14.8 2 Sudoeste 6 Sur 0 1017.5 -- 91
2020-07-04 03:00:00 15.1 3 Sur 13 Sur 0 1018 -- 91
2020-07-04 02:00:00 15.5 12 Sur 14 Sur 0 1018.3 -- 88
2020-07-04 01:00:00 15.6 10 Sur 12 Sudeste 0 1018.6 -- 84
2020-07-04 00:00:00 16.3 8 Sudeste 13 Este 0 1018.6 -- 85
2020-07-03 23:00:00 16.5 9 Este 16 Este 0 1018.6 -- 81
2020-07-03 22:00:00 17.4 11 Este 16 Este 0 1017.9 -- 77
2020-07-03 21:00:00 18.8 12 Este 17 Este 0 1017.9 -- 71
2020-07-03 20:00:00 19.3 13 Nordeste 21 Nordeste 0 1017.9 -- 69
2020-07-03 19:00:00 20 16 Nordeste 22 Nordeste 0 1017.8 -- 69
2020-07-03 18:00:00 20.3 17 Nordeste 23 Nordeste 0 1017.7 -- 69
2020-07-03 17:00:00 20.5 16 Nordeste 21 Nordeste 0 1017.8 -- 68
2020-07-03 16:00:00 20.2 14 Nordeste 19 Nordeste 0 1018.1 -- 69
2020-07-03 15:00:00 19.9 10 Norte 18 Norte 0 1018.2 -- 69
2020-07-03 14:00:00 19 12 Noroeste 20 Noroeste 0 1018.6 -- 75
2020-07-03 13:00:00 18.8 14 Noroeste 19 Noroeste 0 1018.5 -- 76
2020-07-03 12:00:00 19 9 Noroeste 19 Noroeste 0 1018.5 -- 75
2020-07-03 11:00:00 18.8 12 Oeste 18 Oeste 0 1018.1 -- 74
2020-07-03 10:00:00 18.1 7 Oeste 15 Sudoeste 0 1018 -- 77
2020-07-03 09:00:00 17.9 10 Sudoeste 17 Sudoeste 0 1017.6 -- 75
2020-07-03 08:00:00 16 9 Sudoeste 16 Sudoeste 0 1017.5 -- 84
2020-07-03 07:00:00 15.2 12 Sudoeste 18 Sudoeste 0 1017.3 -- 86
2020-07-03 06:00:00 15.1 12 Sudoeste 18 Sudoeste 0 1017.1 -- 86
2020-07-03 05:00:00 15.1 9 Sudoeste 17 Sudoeste 0 1017 -- 86
2020-07-03 04:00:00 15 10 Sudoeste 16 Sudoeste 0 1017.3 -- 88
2020-07-03 03:00:00 15.1 10 Sudoeste 16 Sudoeste 0 1017.4 -- 90
2020-07-03 02:00:00 14.9 10 Sudoeste 21 Oeste 0 1017.4 -- 93
2020-07-03 01:00:00 15.1 11 Sudoeste 25 Oeste 0 1017.7 -- 93
2020-07-03 00:00:00 15.8 10 Sudoeste 18 Oeste 0 1017.5 -- 90
2020-07-02 23:00:00 15.7 9 Sudoeste 21 Sudoeste 0 1017.2 -- 92
2020-07-02 22:00:00 15.9 10 Sudoeste 14 Sudoeste 0 1016.5 -- 92
2020-07-02 21:00:00 16.2 6 Noroeste 29 Norte 0 1016.1 -- 91
2020-07-02 20:00:00 16.5 9 Sudoeste 17 Sudoeste 0 1015.8 -- 90
2020-07-02 19:00:00 16.1 8 Sudoeste 23 Oeste 0 1015.4 -- 91
2020-07-02 18:00:00 16.4 19 Oeste 31 Oeste 0 1015.5 -- 88
2020-07-02 17:00:00 18 15 Oeste 21 Oeste 0 1014.8 -- 81
2020-07-02 16:00:00 17 13 Sudoeste 25 Noroeste 0 1014.7 -- 87
2020-07-02 15:00:00 17 14 Oeste 24 Oeste 0 1014.7 -- 86
2020-07-02 14:00:00 16.1 7 Oeste 17 Norte 0.2 1014.7 -- 94
2020-07-02 13:00:00 15.2 18 Norte 32 Norte 0.2 1014.5 -- 95
2020-07-02 12:00:00 16.7 14 Oeste 22 Oeste 0 1013.6 -- 88
2020-07-02 11:00:00 16 11 Sur 16 Sur 0 1013.2 -- 94
2020-07-02 10:00:00 15.1 5 Sudoeste 26 Noroeste 1.4 1012.9 -- 98
2020-07-02 09:00:00 15.4 5 Oeste 18 Sudoeste 0.6 1012.4 -- 98
2020-07-02 08:00:00 15.5 9 Sudoeste 17 Sudoeste 0.2 1011.8 -- 96
2020-07-02 07:00:00 15.5 10 Sudoeste 14 Sur 0 1011.5 -- 97
2020-07-02 06:00:00 15.5 8 Noroeste 26 Noroeste 0.6 1011.2 -- 97
2020-07-02 05:00:00 16.2 9 Sudoeste 17 Oeste 0 1011 -- 92
2020-07-02 04:00:00 16.1 10 Sudoeste 15 Sudoeste 0 1011.1 -- 95
2020-07-02 03:00:00 16.2 8 Sudoeste 18 Noroeste 0 1011.3 -- 93
2020-07-02 02:00:00 16.5 11 Noroeste 18 Noroeste 0.4 1011.6 -- 91
2020-07-02 01:00:00 16.5 9 Sudoeste 15 Oeste 0.2 1011.7 -- 96
2020-07-02 00:00:00 16.7 5 Oeste 12 Oeste 0 1011.9 -- 96
2020-07-01 23:00:00 16.5 8 Oeste 16 Noroeste 0.2 1011.6 -- 95
2020-07-01 22:00:00 17 10 Oeste 19 Noroeste 0.2 1011.2 -- 93
2020-07-01 21:00:00 18.3 15 Noroeste 22 Noroeste 0 1010.8 -- 84
2020-07-01 20:00:00 18.2 16 Noroeste 26 Noroeste 0 1010.5 -- 87
2020-07-01 19:00:00 17.8 17 Noroeste 33 Noroeste 0 1010.2 -- 91
2020-07-01 18:00:00 18.5 24 Noroeste 33 Noroeste 0 1010.2 -- 91
2020-07-01 17:00:00 19.2 18 Noroeste 26 Noroeste 0 1009.7 -- 90
2020-07-01 16:00:00 19.5 15 Noroeste 26 Noroeste 0 1009.5 -- 90
2020-07-01 15:00:00 20 13 Noroeste 23 Noroeste 0 1009.3 -- 87
2020-07-01 14:00:00 20.5 14 Oeste 21 Noroeste 0 1009.1 -- 89
2020-07-01 13:00:00 21.1 17 Oeste 30 Oeste 0 1008.7 -- 85
2020-07-01 12:00:00 21.8 22 Oeste 30 Oeste 0 1008.2 -- 81
2020-07-01 11:00:00 20.5 16 Oeste 23 Oeste 0 1007.8 -- 85
2020-07-01 10:00:00 19.4 9 Oeste 13 Oeste 0 1007.6 -- 88
2020-07-01 09:00:00 18.9 5 Oeste 8 Oeste 0 1007.2 -- 88
2020-07-01 08:00:00 18.6 3 Sudoeste 6 Oeste 0 1006.8 -- 91
2020-07-01 07:00:00 18.5 4 Sur 7 Sur 0 1006.2 -- 94
2020-07-01 06:00:00 18.4 5 Sur 9 Sudoeste 0 1006 -- 95
2020-07-01 05:00:00 18.3 5 Sudoeste 9 Sudoeste 0 1006 -- 95
2020-07-01 04:00:00 18.2 6 Sudoeste 9 Oeste 0 1006.1 -- 95
2020-07-01 03:00:00 18.6 7 Oeste 9 Oeste 0 1006.5 -- 96
2020-07-01 02:00:00 18.6 4 Sudoeste 10 Este 0 1006.8 -- 95
2020-07-01 01:00:00 18.6 5 Oeste 15 Este 0 1007.3 -- 94
2020-07-01 00:00:00 18.5 8 Este 11 Sudeste 0 1007 -- 93
2020-06-30 23:00:00 18.9 3 Nordeste 10 Nordeste 0 1007.1 -- 92
2020-06-30 22:00:00 19.5 8 Nordeste 14 Nordeste 0 1006.6 -- 89
2020-06-30 21:00:00 19.8 12 Nordeste 20 Este 0 1006.7 -- 87
2020-06-30 20:00:00 20.3 13 Nordeste 19 Nordeste 0 1006.3 -- 84
2020-06-30 19:00:00 21.7 14 Nordeste 24 Este 0 1006.6 -- 80
2020-06-30 18:00:00 21.9 18 Este 24 Este 0 1006.7 -- 78
2020-06-30 17:00:00 22.3 18 Nordeste 24 Nordeste 0 1007.1 -- 78
2020-06-30 16:00:00 22.6 16 Nordeste 23 Nordeste 0 1007.5 -- 74
2020-06-30 15:00:00 22.5 17 Nordeste 22 Nordeste 0 1007.9 -- 75
2020-06-30 14:00:00 22.5 15 Nordeste 22 Nordeste 0 1008.2 -- 74
2020-06-30 13:00:00 22.6 14 Nordeste 18 Nordeste 0 1008.6 -- 74
2020-06-30 12:00:00 21.3 10 Nordeste 12 Nordeste 0 1008.8 -- 79
2020-06-30 11:00:00 21.5 6 Nordeste 11 Nordeste 0 1009.1 -- 74
2020-06-30 10:00:00 21.3 7 Este 11 Este 0 1009.4 -- 72
2020-06-30 09:00:00 18.9 4 Norte 5 Nordeste 0 1009.6 -- 85
2020-06-30 08:00:00 18.2 2 Sur 6 Sur 0 1009.7 -- 87
2020-06-30 07:00:00 16.3 0 Calma 6 Sur 0 1009.8 -- 94
2020-06-30 06:00:00 16.3 5 Sur 10 Sur 0 1009.9 -- 94
2020-06-30 05:00:00 16.2 8 Sur 13 Sur 0 1010.4 -- 95
2020-06-30 04:00:00 16.2 9 Sur 12 Sur 0 1010.9 -- 94
2020-06-30 03:00:00 16.2 8 Sur 10 Sur 0 1011.5 -- 93
2020-06-30 02:00:00 16.4 8 Sudeste 10 Sudeste 0 1012 -- 89
2020-06-30 01:00:00 16.6 7 Sudeste 10 Sudeste 0 1012.5 -- 90
2020-06-30 00:00:00 16.8 6 Este 11 Este 0 1012.7 -- 88
2020-06-29 23:00:00 17.4 9 Nordeste 13 Este 0 1012.8 -- 85
2020-06-29 22:00:00 18 10 Nordeste 14 Este 0 1012.8 -- 82
2020-06-29 21:00:00 18.8 11 Nordeste 15 Nordeste 0 1012.9 -- 77
2020-06-29 20:00:00 19.4 11 Nordeste 16 Nordeste 0 1012.9 -- 75
2020-06-29 19:00:00 19.4 13 Nordeste 17 Nordeste 0 1013.2 -- 73
2020-06-29 18:00:00 20 12 Nordeste 17 Nordeste 0 1013.7 -- 72
2020-06-29 17:00:00 20.1 12 Nordeste 15 Nordeste 0 1014.1 -- 71
2020-06-29 16:00:00 20.1 12 Nordeste 16 Nordeste 0 1014.4 -- 74
2020-06-29 15:00:00 20.3 11 Nordeste 17 Nordeste 0 1014.9 -- 74
2020-06-29 14:00:00 19.6 12 Nordeste 17 Nordeste 0 1015.2 -- 76
2020-06-29 13:00:00 19.1 12 Nordeste 17 Nordeste 0 1015.4 -- 76
2020-06-29 12:00:00 18.8 6 Nordeste 10 Nordeste 0 1015.3 -- 85
2020-06-29 11:00:00 18.1 6 Nordeste 9 Nordeste 0 1015 -- 88
2020-06-29 10:00:00 17.4 3 Nordeste 13 Norte 0 1014.9 -- 91
2020-06-29 09:00:00 16.7 8 Norte 18 Norte 0 1015 -- 93
2020-06-29 08:00:00 16.9 10 Norte 21 Norte 0 1014.7 -- 92
2020-06-29 07:00:00 17.2 10 Noroeste 21 Noroeste 0 1014.5 -- 85
2020-06-29 06:00:00 17 6 Oeste 9 Oeste 0 1014.1 -- 91
2020-06-29 05:00:00 17 5 Sudoeste 10 Oeste 0 1014.2 -- 93
2020-06-29 04:00:00 17.4 5 Oeste 14 Norte 0 1014.3 -- 91
2020-06-29 03:00:00 17.4 13 Noroeste 23 Noroeste 0 1014.5 -- 90
2020-06-29 02:00:00 17.9 15 Noroeste 26 Noroeste 0 1014.5 -- 88
2020-06-29 01:00:00 17.7 18 Noroeste 25 Noroeste 0 1014.6 -- 96
2020-06-29 00:00:00 17.5 13 Oeste 23 Noroeste 0.2 1014.6 -- 99
2020-06-28 23:00:00 18.2 12 Oeste 20 Oeste 1.2 1014.3 -- 99
2020-06-28 22:00:00 18.5 15 Oeste 23 Oeste 0.6 1014 -- 97
2020-06-28 21:00:00 19.4 14 Oeste 22 Oeste 0 1013.8 -- 90
2020-06-28 20:00:00 20.4 12 Oeste 18 Oeste 0 1013.5 -- 84
2020-06-28 19:00:00 20.9 12 Noroeste 23 Noroeste 0 1013.3 -- 78
2020-06-28 18:00:00 21.9 8 Noroeste 18 Noroeste 0 1013.1 -- 75
2020-06-28 17:00:00 22.2 10 Noroeste 17 Noroeste 0 1013 -- 72
2020-06-28 16:00:00 21.9 6 Norte 14 Norte 0 1013.1 0.1 75
2020-06-28 15:00:00 22.5 9 Este 18 Este 0 1012.8 -- 77
2020-06-28 14:00:00 22.4 13 Este 21 Este 0 1012.7 -- 76
2020-06-28 13:00:00 22.1 15 Nordeste 19 Nordeste 0 1013 -- 77
2020-06-28 12:00:00 22 11 Este 16 Este 0 1012.7 -- 74
2020-06-28 11:00:00 20.4 9 Nordeste 12 Sudeste 0 1013.2 -- 80
2020-06-28 10:00:00 21.7 10 Sudeste 15 Sudeste 0 1013 -- 70
2020-06-28 09:00:00 20 3 Este 6 Este 0 1013 -- 82
2020-06-28 08:00:00 18.4 2 Este 10 Sur 0 1012.7 -- 88
2020-06-28 07:00:00 17.8 6 Sudoeste 10 Sudoeste 0 1012.4 -- 89
2020-06-28 06:00:00 17.9 5 Sudoeste 9 Sudoeste 0 1012.4 -- 90
2020-06-28 05:00:00 17.8 6 Sudoeste 12 Sudoeste 0 1012.4 -- 90
2020-06-28 04:00:00 17.6 8 Sudoeste 13 Sudoeste 0 1012.6 -- 91
2020-06-28 03:00:00 17.6 7 Sudoeste 15 Sur 0 1012.7 -- 92
2020-06-28 02:00:00 17.5 8 Sudoeste 21 Sudoeste 0 1013 -- 94
2020-06-28 01:00:00 17.8 12 Oeste 22 Oeste 0 1013.2 -- 93
2020-06-28 00:00:00 18.5 13 Oeste 19 Oeste 0 1013 -- 89
2020-06-27 23:00:00 18.5 10 Oeste 18 Noroeste 0 1012.7 -- 89
2020-06-27 22:00:00 18.6 13 Noroeste 18 Noroeste 0 1012 -- 87
2020-06-27 21:00:00 18.8 10 Noroeste 19 Noroeste 0 1011.7 -- 89
2020-06-27 20:00:00 19.5 12 Noroeste 18 Noroeste 0 1011.1 -- 90
2020-06-27 19:00:00 19.5 12 Noroeste 26 Norte 0 1010.7 -- 92
2020-06-27 18:00:00 20.2 18 Norte 29 Norte 0 1010.4 -- 89
2020-06-27 17:00:00 23.5 6 Nordeste 19 Este 0 1009.8 -- 70
2020-06-27 16:00:00 22 12 Este 19 Nordeste 0 1009.7 -- 76
2020-06-27 15:00:00 22.7 14 Este 20 Este 0 1009.4 -- 73
2020-06-27 14:00:00 23.3 12 Este 15 Este 0 1009.6 -- 71
2020-06-27 13:00:00 22.9 9 Nordeste 13 Nordeste 0 1009.4 -- 71
2020-06-27 12:00:00 21.8 5 Nordeste 8 Nordeste 0 1009.3 -- 72
2020-06-27 11:00:00 20.9 7 Norte 12 Norte 0 1009 -- 78
2020-06-27 10:00:00 21.9 9 Sur 12 Sur 0 1008.7 -- 66
2020-06-27 09:00:00 20.3 5 Sudoeste 12 Sudoeste 0 1008.4 -- 71
2020-06-27 08:00:00 17.4 10 Sudoeste 13 Sur 0 1008.1 -- 78
2020-06-27 07:00:00 16.8 5 Sudoeste 12 Oeste 0 1007.9 -- 90
2020-06-27 06:00:00 16.6 9 Oeste 12 Oeste 0 1007.8 -- 87
2020-06-27 05:00:00 16.9 2 Nordeste 12 Sur 0 1007.5 -- 91
2020-06-27 04:00:00 16.6 8 Sur 15 Sur 0 1007.6 -- 92
2020-06-27 03:00:00 17.2 6 Sudoeste 7 Sudoeste 0 1007.8 -- 88
2020-06-27 02:00:00 16.9 3 Noroeste 7 Sudoeste 0 1007.6 -- 95
2020-06-27 01:00:00 16.8 2 Este 17 Sur 0 1007.5 -- 94
2020-06-27 00:00:00 16.7 13 Sur 21 Sudeste 0 1007.6 -- 96
2020-06-26 23:00:00 16.9 18 Sudeste 24 Sudeste 0 1007.9 -- 94
2020-06-26 22:00:00 17.1 18 Sudeste 23 Sudeste 0 1007.6 -- 91
2020-06-26 21:00:00 18.4 12 Este 16 Este 0 1007.8 -- 85
2020-06-26 20:00:00 19.1 8 Este 10 Este 0 1007.7 -- 82
2020-06-26 19:00:00 18.7 7 Este 10 Sudeste 0 1007.7 -- 86
2020-06-26 18:00:00 17.7 0 Calma 14 Noroeste 0 1008.4 -- 87
2020-06-26 17:00:00 17.8 9 Norte 14 Norte 0 1008.3 -- 88
2020-06-26 16:00:00 17.5 5 Noroeste 9 Noroeste 0 1008.9 -- 93
2020-06-26 15:00:00 17.6 5 Noroeste 9 Norte 0 1008.8 -- 93
2020-06-26 14:00:00 16.9 5 Norte 10 Noroeste 0 1009 -- 96
2020-06-26 13:00:00 16.4 8 Noroeste 18 Noroeste 0 1009.1 -- 99
2020-06-26 12:00:00 16.9 12 Oeste 18 Noroeste 0 1009 -- 98
2020-06-26 11:00:00 16.9 8 Oeste 13 Oeste 0 1009 -- 97
2020-06-26 10:00:00 17.2 7 Oeste 13 Oeste 0 1008.9 -- 96
2020-06-26 09:00:00 16.9 10 Oeste 14 Noroeste 0 1008.7 -- 99
2020-06-26 08:00:00 16.4 9 Oeste 14 Oeste 0 1008.5 -- 99
2020-06-26 07:00:00 16.2 7 Sudoeste 12 Sudoeste 0 1008.4 -- 99
2020-06-26 06:00:00 16.2 8 Sudoeste 12 Sudoeste 0 1008.7 -- 99
2020-06-26 05:00:00 16.3 7 Sudoeste 15 Oeste 0 1009.2 -- 98
2020-06-26 04:00:00 16.6 11 Oeste 20 Oeste 0 1009.4 -- 97
2020-06-26 03:00:00 17.1 13 Oeste 22 Oeste 0 1009.5 -- 93
2020-06-26 02:00:00 17.3 12 Oeste 23 Oeste 0 1010 -- 94
2020-06-26 01:00:00 17.3 14 Oeste 22 Oeste 0 1010.1 -- 96
2020-06-26 00:00:00 17.4 16 Oeste 23 Oeste 0 1010.8 -- 95
2020-06-25 23:00:00 17.4 15 Noroeste 23 Noroeste 0.2 1010.7 -- 95
2020-06-25 22:00:00 17.3 8 Oeste 22 Sudoeste 0.8 1010 -- 96
2020-06-25 21:00:00 17.6 11 Oeste 25 Oeste 0.4 1009.4 -- 94
2020-06-25 20:00:00 18.2 13 Oeste 28 Oeste 0 1009.5 -- 91
2020-06-25 19:00:00 18.6 22 Oeste 35 Oeste 0 1009.5 -- 90
2020-06-25 18:00:00 18.5 21 Oeste 32 Oeste 0 1009.3 -- 91
2020-06-25 17:00:00 18 14 Oeste 27 Noroeste 0.2 1008.9 -- 95
2020-06-25 16:00:00 17.7 15 Noroeste 33 Oeste 0.4 1008.2 -- 95
2020-06-25 15:00:00 18 18 Oeste 34 Oeste 0 1009.8 -- 94
2020-06-25 14:00:00 18.2 24 Oeste 34 Oeste 0.2 1010.4 -- 93
2020-06-25 13:00:00 19.8 24 Oeste 33 Oeste 0 1010.1 -- 84
2020-06-25 12:00:00 19.6 15 Oeste 27 Oeste 0 1009.7 -- 86
2020-06-25 11:00:00 19.6 21 Oeste 28 Noroeste 0 1009.6 -- 86
2020-06-25 10:00:00 18.8 17 Oeste 35 Oeste 0 1009.4 -- 91
2020-06-25 09:00:00 18 18 Oeste 27 Oeste 0 1009.5 -- 93
2020-06-25 08:00:00 17.9 14 Oeste 28 Oeste 0 1008.8 -- 94
2020-06-25 07:00:00 17.7 17 Oeste 31 Oeste 0 1008.8 -- 95
2020-06-25 06:00:00 17.8 21 Oeste 31 Oeste 0 1008.3 -- 95
2020-06-25 05:00:00 17.9 21 Oeste 33 Oeste 0 1008.1 -- 96
2020-06-25 04:00:00 18.1 20 Oeste 32 Oeste 0 1008.3 -- 95
2020-06-25 03:00:00 18.9 9 Noroeste 23 Sur 0 1007.6 -- 89
2020-06-25 02:00:00 19.3 8 Sur 17 Sur 0 1008.8 -- 86
2020-06-25 01:00:00 18.9 13 Sudoeste 21 Sudoeste 0 1009.7 -- 84
2020-06-25 00:00:00 19.1 15 Oeste 23 Oeste 0 1010.1 -- 83
2020-06-24 23:00:00 19.2 8 Oeste 16 Sudoeste 0 1009.1 -- 83
2020-06-24 22:00:00 19.6 9 Oeste 28 Oeste 0 1008.9 -- 78
2020-06-24 21:00:00 19.1 13 Sudoeste 33 Oeste 0 1009.5 -- 84
2020-06-24 20:00:00 18.6 19 Oeste 41 Oeste 0 1009.5 -- 93
2020-06-24 19:00:00 18.8 28 Oeste 41 Oeste 0 1008.5 -- 92
2020-06-24 18:00:00 19.7 23 Oeste 34 Oeste 0 1008.3 -- 90
2020-06-24 17:00:00 20.7 19 Oeste 28 Oeste 0 1007.7 -- 86
2020-06-24 16:00:00 20.6 19 Oeste 30 Oeste 0 1007.8 -- 86
2020-06-24 15:00:00 20.6 19 Oeste 30 Oeste 0 1007.7 -- 85
2020-06-24 14:00:00 20.2 23 Oeste 31 Oeste 0 1008 -- 87
2020-06-24 13:00:00 20.1 22 Oeste 31 Oeste 0 1008 -- 88
2020-06-24 12:00:00 18.9 21 Oeste 33 Oeste 0 1008.2 -- 93
2020-06-24 11:00:00 18.3 24 Oeste 35 Oeste 0 1007.9 -- 98
2020-06-24 10:00:00 18 23 Oeste 36 Oeste 0 1007.7 -- 100
2020-06-24 09:00:00 17.7 24 Oeste 35 Oeste 0 1007.4 -- 100
2020-06-24 08:00:00 17.7 21 Oeste 40 Oeste 0 1007.5 -- 100
2020-06-24 07:00:00 17.9 22 Oeste 31 Oeste 0 1006.8 -- 99
2020-06-24 06:00:00 18 22 Oeste 30 Oeste 0 1006.5 -- 97
2020-06-24 05:00:00 18.1 16 Oeste 20 Oeste 0 1006.2 -- 94
2020-06-24 04:00:00 18.9 13 Sudoeste 19 Sudoeste 0 1006.4 -- 91
2020-06-24 03:00:00 18.6 6 Este 9 Este 0 1006.2 -- 91
2020-06-24 02:00:00 18.6 3 Sur 6 Este 0 1006.9 -- 94
2020-06-24 01:00:00 18.3 6 Sudeste 12 Este 0 1007.1 -- 95
2020-06-24 00:00:00 18.8 9 Este 18 Este 0 1007.5 -- 94
2020-06-23 23:00:00 19.1 12 Este 20 Este 0 1007.7 -- 91
2020-06-23 22:00:00 19.6 13 Este 29 Este 0 1007 -- 88
2020-06-23 21:00:00 20.7 18 Este 30 Este 0 1007 -- 84
2020-06-23 20:00:00 21 15 Este 31 Este 0 1007.2 -- 83
2020-06-23 19:00:00 21.3 22 Este 34 Este 0 1007.2 -- 81
2020-06-23 18:00:00 21.6 20 Este 32 Este 0 1007.5 -- 83
2020-06-23 17:00:00 21.4 23 Este 36 Este 0 1007.6 -- 84
2020-06-23 16:00:00 21.3 27 Este 41 Este 0 1007.8 -- 83
2020-06-23 15:00:00 21.1 29 Este 41 Este 0 1008 -- 85
2020-06-23 14:00:00 20.8 28 Este 39 Este 0 1008.3 -- 86
2020-06-23 13:00:00 20.7 29 Este 41 Este 0 1009 -- 86
2020-06-23 12:00:00 20.6 28 Este 40 Este 0 1009.2 -- 85
2020-06-23 11:00:00 20.2 31 Este 38 Este 0 1009.6 -- 84
2020-06-23 10:00:00 20.6 22 Este 30 Este 0 1010.2 -- 81
2020-06-23 09:00:00 20.7 12 Este 17 Este 0 1010.5 -- 78
2020-06-23 08:00:00 18.9 12 Sudeste 18 Este 0 1010.8 -- 84
2020-06-23 07:00:00 16.7 13 Sudeste 19 Sudeste 0 1010.9 -- 93
2020-06-23 06:00:00 16.7 10 Este 19 Este 0 1011 -- 91
2020-06-23 05:00:00 17.3 14 Sudeste 25 Sudeste 0 1011.1 -- 89
2020-06-23 04:00:00 17.2 13 Sudeste 32 Este 0 1011.8 -- 93
2020-06-23 03:00:00 17.6 24 Este 34 Este 0 1012.5 -- 94
2020-06-23 02:00:00 17.4 16 Este 22 Este 0 1013.3 -- 97
2020-06-23 01:00:00 17.7 17 Este 30 Este 0 1013.8 -- 96
2020-06-23 00:00:00 17.9 24 Este 33 Este 0 1014.2 -- 94
2020-06-22 23:00:00 17.9 23 Este 34 Este 0 1014.3 -- 94
2020-06-22 22:00:00 18.2 24 Este 39 Este 0 1014.1 -- 92
2020-06-22 21:00:00 18.9 32 Este 39 Este 0 1014.1 -- 88
2020-06-22 20:00:00 19.4 30 Este 45 Este 0 1014.2 -- 87
2020-06-22 19:00:00 19.8 31 Este 46 Este 0 1014.4 -- 86
2020-06-22 18:00:00 20.1 34 Este 47 Este 0 1015 -- 85
2020-06-22 17:00:00 20.3 33 Este 46 Este 0 1015.5 -- 85
2020-06-22 16:00:00 20.7 31 Este 46 Este 0 1016.2 -- 85
2020-06-22 15:00:00 20.8 28 Este 40 Este 0 1016.9 -- 84
2020-06-22 14:00:00 20.6 29 Este 40 Este 0 1017.6 -- 85
2020-06-22 13:00:00 20.8 28 Este 37 Este 0 1017.9 -- 84
2020-06-22 12:00:00 20.7 25 Este 33 Este 0 1018.3 -- 84
2020-06-22 11:00:00 20.5 23 Este 31 Este 0 1018.7 -- 85
2020-06-22 10:00:00 19.4 23 Este 28 Este 0 1019.2 -- 89
2020-06-22 09:00:00 19 15 Este 19 Este 0 1019.4 -- 93
2020-06-22 08:00:00 18.1 9 Este 23 Este 0 1019.4 -- 96
2020-06-22 07:00:00 18 14 Este 17 Este 0 1019.4 -- 96
2020-06-22 06:00:00 17.9 10 Este 13 Este 0 1019.5 -- 96
2020-06-22 05:00:00 17.9 8 Nordeste 11 Nordeste 0 1019.8 -- 95
2020-06-22 04:00:00 18.1 6 Nordeste 9 Nordeste 0 1020.2 -- 95
2020-06-22 03:00:00 18.3 5 Noroeste 10 Noroeste 0 1020.7 -- 95
2020-06-22 02:00:00 18.5 9 Noroeste 12 Noroeste 0 1021.2 -- 94
2020-06-22 01:00:00 18.7 5 Noroeste 8 Noroeste 0 1021.6 -- 93
2020-06-22 00:00:00 18.7 4 Noroeste 11 Norte 0 1021.5 -- 93
2020-06-21 23:00:00 19.2 5 Norte 18 Norte 0 1021.2 -- 91
2020-06-21 22:00:00 19.7 8 Noroeste 14 Noroeste 0 1020.6 -- 84
2020-06-21 21:00:00 20.6 2 Nordeste 7 Este 0 1020.3 -- 71
2020-06-21 20:00:00 20.9 5 Nordeste 9 Este 0 1020 -- 74
2020-06-21 19:00:00 21.4 7 Este 9 Este 0 1019.8 -- 71
2020-06-21 18:00:00 22.1 7 Este 10 Este 0 1019.7 -- 66
2020-06-21 17:00:00 22.3 7 Nordeste 10 Nordeste 0 1019.8 -- 71
2020-06-21 16:00:00 21.3 6 Nordeste 9 Nordeste 0 1019.7 -- 76
2020-06-21 15:00:00 20.8 8 Norte 10 Norte 0 1019.5 -- 78
2020-06-21 14:00:00 20.7 5 Norte 10 Oeste 0 1019.2 -- 79
2020-06-21 13:00:00 20.7 7 Noroeste 18 Oeste 0 1019.4 -- 74
2020-06-21 12:00:00 20.3 10 Noroeste 18 Oeste 0 1019.2 -- 82
2020-06-21 11:00:00 19.9 12 Oeste 19 Oeste 0 1018.7 -- 81
2020-06-21 10:00:00 19.3 10 Oeste 18 Oeste 0 1018.5 -- 87
2020-06-21 09:00:00 17.9 9 Oeste 13 Oeste 0 1018.1 -- 87
2020-06-21 08:00:00 17.6 5 Sudoeste 7 Sudoeste 0 1017.6 -- 86
2020-06-21 07:00:00 16.2 3 Sudoeste 9 Sudoeste 0 1017.2 -- 91
2020-06-21 06:00:00 16.1 7 Sudoeste 9 Sur 0 1016.6 -- 91
2020-06-21 05:00:00 16.4 6 Sudoeste 9 Sudoeste 0 1016.6 -- 89
2020-06-21 04:00:00 16.5 7 Sur 8 Sur 0 1016.7 -- 87
2020-06-21 03:00:00 16.4 4 Sur 7 Sudeste 0 1016.9 -- 87
2020-06-21 02:00:00 16.5 3 Sudeste 15 Sudeste 0 1017.2 -- 85
2020-06-21 01:00:00 16.9 12 Este 20 Este 0 1017.2 -- 92
2020-06-21 00:00:00 17.4 13 Este 19 Este 0 1017.2 -- 90
2020-06-20 23:00:00 17.6 15 Este 18 Este 0 1017 -- 87
2020-06-20 22:00:00 17.9 12 Este 18 Este 0 1016.6 -- 88
2020-06-20 21:00:00 19.2 13 Este 19 Este 0 1016.4 -- 83
2020-06-20 20:00:00 19.7 13 Este 22 Nordeste 0 1016.3 -- 81
2020-06-20 19:00:00 20 19 Nordeste 27 Nordeste 0 1016.1 -- 80
2020-06-20 18:00:00 20.5 20 Nordeste 27 Nordeste 0 1015.9 -- 75
2020-06-20 17:00:00 20.8 18 Este 26 Este 0 1016.1 -- 75
2020-06-20 16:00:00 20.9 18 Nordeste 24 Este 0 1016.1 -- 72
2020-06-20 15:00:00 21 18 Nordeste 26 Este 0 1016.1 -- 74
2020-06-20 14:00:00 20.8 18 Nordeste 27 Este 0 1016.1 -- 74
2020-06-20 13:00:00 20.8 17 Este 24 Este 0 1016.1 -- 65
2020-06-20 12:00:00 20.9 15 Este 20 Este 0 1016.1 -- 69
2020-06-20 11:00:00 19.5 10 Este 14 Este 0 1016.2 -- 76
2020-06-20 10:00:00 19.9 8 Sudeste 12 Sudeste 0 1016.1 -- 69
2020-06-20 09:00:00 18.9 6 Este 10 Este 0 1015.9 -- 75
2020-06-20 08:00:00 17.2 4 Sur 6 Sur 0 1015.8 -- 82
2020-06-20 07:00:00 15.3 4 Sur 8 Sudoeste 0 1015.6 -- 85
2020-06-20 06:00:00 15.1 7 Sudoeste 9 Sur 0 1015.6 -- 86
2020-06-20 05:00:00 15.1 5 Sur 6 Sur 0 1015.6 -- 89
2020-06-20 04:00:00 15.2 4 Sur 13 Sur 0 1015.5 -- 90
2020-06-20 03:00:00 15 11 Sur 15 Sudeste 0 1015.7 -- 89
2020-06-20 02:00:00 15 12 Sudeste 13 Sudeste 0 1015.8 -- 88
2020-06-20 01:00:00 15.5 8 Sudeste 12 Sudeste 0 1016.1 -- 84
2020-06-20 00:00:00 15.9 10 Sudeste 12 Sudeste 0 1016.1 -- 85
2020-06-19 23:00:00 16.6 5 Este 9 Este 0 1016.2 -- 78
2020-06-19 22:00:00 17.3 6 Nordeste 12 Nordeste 0 1015.6 -- 75
2020-06-19 21:00:00 17.8 9 Nordeste 13 Nordeste 0 1015 -- 74
2020-06-19 20:00:00 18.9 8 Nordeste 13 Nordeste 0 1014.8 -- 70
2020-06-19 19:00:00 19.1 9 Nordeste 15 Nordeste 0 1014.4 -- 69
2020-06-19 18:00:00 19.1 10 Nordeste 17 Nordeste 0 1014.3 -- 68
2020-06-19 17:00:00 19.3 12 Norte 19 Nordeste 0 1014.2 -- 70
2020-06-19 16:00:00 19.6 13 Nordeste 17 Nordeste 0 1014 -- 73
2020-06-19 15:00:00 19.9 12 Nordeste 16 Nordeste 0 1014 -- 72
2020-06-19 14:00:00 19.3 10 Nordeste 14 Nordeste 0 1014.1 -- 73
2020-06-19 13:00:00 18.7 8 Norte 12 Norte 0 1014.1 -- 73
2020-06-19 12:00:00 18.1 9 Norte 13 Norte 0 1013.8 -- 73
2020-06-19 11:00:00 17.7 5 Norte 8 Nordeste 0 1013.5 -- 78
2020-06-19 10:00:00 17.5 5 Nordeste 9 Este 0 1013.5 -- 79
2020-06-19 09:00:00 17.6 5 Este 8 Este 0 1013 -- 79
2020-06-19 08:00:00 16.1 0 Calma 6 Sur 0 1012.7 -- 85
2020-06-19 07:00:00 15.3 0 Calma 4 Sudeste 0 1012.4 -- 90
2020-06-19 06:00:00 15.3 3 Sur 9 Sur 0 1011.9 -- 87
2020-06-19 05:00:00 15.3 6 Sur 12 Sur 0 1011.9 -- 84
2020-06-19 04:00:00 15.3 8 Sudeste 10 Sudeste 0 1012.2 -- 88
2020-06-19 03:00:00 15.4 8 Sudeste 12 Sudeste 0 1012.5 -- 88
2020-06-19 02:00:00 15.7 5 Sudeste 8 Sudeste 0 1012.7 -- 84
2020-06-19 01:00:00 15.5 6 Sudeste 9 Sudeste 0 1012.7 -- 84
2020-06-19 00:00:00 15.6 5 Este 8 Este 0 1012.5 -- 85
2020-06-18 23:00:00 15.5 4 Este 9 Nordeste 0 1012.5 -- 85
2020-06-18 22:00:00 15.9 6 Nordeste 11 Norte 0 1011.7 -- 83
2020-06-18 21:00:00 17.4 8 Norte 12 Norte 0 1011.5 -- 76
2020-06-18 20:00:00 17.3 9 Nordeste 12 Nordeste 0 1011.1 -- 77
2020-06-18 19:00:00 17.9 8 Norte 13 Norte 0 1010.7 -- 72
2020-06-18 18:00:00 17.9 9 Norte 18 Norte 0 1010.9 -- 72
2020-06-18 17:00:00 18.1 10 Norte 18 Norte 0 1011 -- 78
2020-06-18 16:00:00 17.5 14 Norte 19 Noroeste 0 1011 -- 76
2020-06-18 15:00:00 17.4 13 Noroeste 19 Noroeste 0 1011 -- 78
2020-06-18 14:00:00 17.5 13 Noroeste 21 Noroeste 0 1010.8 -- 77
2020-06-18 13:00:00 17.4 11 Noroeste 22 Noroeste 0 1010.9 -- 78
2020-06-18 12:00:00 17.7 12 Noroeste 24 Oeste 0 1010.7 -- 74
2020-06-18 11:00:00 17.8 14 Oeste 21 Oeste 0 1010.4 -- 76
2020-06-18 10:00:00 17 9 Sudoeste 16 Oeste 0 1010.2 -- 78
2020-06-18 09:00:00 15.3 9 Sudoeste 14 Sudoeste 0 1009.9 -- 81
2020-06-18 08:00:00 14.8 10 Sudoeste 15 Sudoeste 0 1009.7 -- 84
2020-06-18 07:00:00 14 10 Sudoeste 17 Sudoeste 0 1009.6 -- 88
2020-06-18 06:00:00 13.9 11 Sudoeste 17 Sur 0 1009.6 -- 91
2020-06-18 05:00:00 13.9 11 Sudoeste 17 Sudoeste 0 1009.9 -- 90
2020-06-18 04:00:00 13.7 11 Sudoeste 17 Sudoeste 0 1010.2 -- 93
2020-06-18 03:00:00 13.6 10 Sudoeste 20 Sudoeste 0.2 1010.4 -- 95
2020-06-18 02:00:00 13.8 13 Sudoeste 23 Oeste 0.8 1011 -- 94
2020-06-18 01:00:00 14.8 13 Oeste 19 Oeste 0 1011.2 -- 88
2020-06-18 00:00:00 15.1 11 Oeste 24 Oeste 0 1011.5 -- 87
2020-06-17 23:00:00 15.5 14 Oeste 21 Noroeste 0 1011.4 -- 88
2020-06-17 22:00:00 15.8 10 Oeste 16 Oeste 0 1011 -- 84
2020-06-17 21:00:00 16.1 11 Oeste 18 Noroeste 0 1011 -- 81
2020-06-17 20:00:00 16.9 12 Oeste 18 Oeste 0 1011.1 -- 80
2020-06-17 19:00:00 17 12 Oeste 21 Oeste 0 1011.4 -- 81
2020-06-17 18:00:00 17 11 Noroeste 23 Noroeste 0 1011.6 -- 81
2020-06-17 17:00:00 17.7 15 Noroeste 29 Noroeste 0 1011.7 -- 78
2020-06-17 16:00:00 18.2 19 Noroeste 37 Noroeste 0 1011.8 -- 76
2020-06-17 15:00:00 17.4 25 Noroeste 36 Noroeste 0 1011.8 -- 79
2020-06-17 14:00:00 18.5 24 Oeste 40 Noroeste 0 1011.9 -- 78
2020-06-17 13:00:00 17.9 26 Oeste 39 Oeste 0 1012 -- 76
2020-06-17 12:00:00 17.9 24 Oeste 39 Oeste 0 1011.9 -- 77
2020-06-17 11:00:00 16.7 25 Oeste 40 Oeste 0 1011.7 -- 79
2020-06-17 10:00:00 16.2 28 Oeste 42 Oeste 0 1011.7 -- 86
2020-06-17 09:00:00 15.9 23 Oeste 42 Oeste 0 1011.5 -- 83
2020-06-17 08:00:00 15.3 25 Oeste 39 Oeste 0 1011.4 -- 85
2020-06-17 07:00:00 14.8 25 Oeste 43 Oeste 0 1011.2 -- 88
2020-06-17 06:00:00 14.6 13 Oeste 36 Oeste 0 1011 -- 89
2020-06-17 05:00:00 14.9 22 Oeste 38 Oeste 1 1011.1 -- 91
2020-06-17 04:00:00 14.9 23 Oeste 39 Oeste 0 1011.6 -- 89
2020-06-17 03:00:00 15.2 22 Oeste 41 Oeste 0 1012.1 -- 90
2020-06-17 02:00:00 15.1 21 Oeste 35 Oeste 0 1012.8 -- 89
2020-06-17 01:00:00 15.8 23 Oeste 35 Oeste 0 1013.2 -- 87
2020-06-17 00:00:00 15.8 22 Oeste 36 Noroeste 0 1013.4 -- 85
2020-06-16 23:00:00 15.8 23 Noroeste 36 Noroeste 0 1013.3 -- 86
2020-06-16 22:00:00 15.8 24 Oeste 41 Oeste 0 1012.9 -- 86
2020-06-16 21:00:00 16.1 23 Oeste 36 Oeste 0 1012.7 -- 84
2020-06-16 20:00:00 16.4 23 Oeste 36 Oeste 0 1012.5 -- 82
2020-06-16 19:00:00 17.3 21 Oeste 36 Oeste 0 1012.5 -- 81
2020-06-16 18:00:00 17.7 24 Oeste 37 Oeste 0 1012.8 -- 78
2020-06-16 17:00:00 18.1 27 Oeste 41 Oeste 0 1012.8 -- 78
2020-06-16 16:00:00 15.4 26 Oeste 36 Oeste 0 1013 -- 92
2020-06-16 15:00:00 16.5 18 Oeste 26 Noroeste 0 1012.9 -- 83
2020-06-16 14:00:00 16.2 14 Oeste 26 Noroeste 0.6 1013 -- 85
2020-06-16 13:00:00 15.4 13 Noroeste 26 Noroeste 0 1013.2 -- 90
2020-06-16 12:00:00 15.1 14 Noroeste 35 Noroeste 0.6 1013.1 -- 92
2020-06-16 11:00:00 14.8 17 Noroeste 30 Noroeste 0 1013.3 -- 93
2020-06-16 10:00:00 16.8 8 Noroeste 12 Oeste 0 1013.2 -- 84
2020-06-16 09:00:00 16.1 3 Noroeste 6 Oeste 0.2 1012.8 -- 89
2020-06-16 08:00:00 15.4 0 Calma 9 Sur 0 1012.8 -- 90
2020-06-16 07:00:00 14.7 8 Sur 12 Sur 0 1012.9 -- 89
2020-06-16 06:00:00 15.3 5 Sudoeste 8 Sudoeste 0 1013.3 -- 87
2020-06-16 05:00:00 15.2 6 Sudoeste 14 Sur 0.2 1013.6 -- 88
2020-06-16 04:00:00 15.7 8 Sudoeste 14 Sudoeste 0 1014.1 -- 83
2020-06-16 03:00:00 15.5 11 Sur 14 Sur 0 1014.6 -- 86
2020-06-16 02:00:00 15.6 7 Sudoeste 13 Sur 0 1015.1 -- 85
2020-06-16 01:00:00 15.6 6 Sudoeste 13 Sudoeste 0 1015.3 -- 87
2020-06-16 00:00:00 15.5 8 Sudoeste 17 Sur 0.2 1015.6 -- 89
2020-06-15 23:00:00 15.6 10 Sur 16 Sur 0.4 1015.8 -- 89
2020-06-15 22:00:00 15.7 9 Sudoeste 18 Sur 0 1015.7 -- 88
2020-06-15 21:00:00 16 9 Sudoeste 16 Sudoeste 0 1015.8 -- 88
2020-06-15 20:00:00 16.9 8 Sudoeste 16 Oeste 0 1015.5 -- 83
2020-06-15 19:00:00 16.9 8 Oeste 17 Oeste 0.2 1015.5 -- 83
2020-06-15 18:00:00 17.9 10 Noroeste 17 Noroeste 0 1015.8 -- 71
2020-06-15 17:00:00 18.8 11 Noroeste 26 Noroeste 0 1015.6 -- 67
2020-06-15 16:00:00 18.9 22 Noroeste 27 Norte 0 1015.6 -- 65
2020-06-15 15:00:00 19.7 11 Noroeste 21 Noroeste 0 1015.8 -- 61
2020-06-15 14:00:00 19.4 11 Noroeste 18 Noroeste 0 1015.9 -- 63
2020-06-15 13:00:00 19.2 8 Norte 12 Norte 0 1015.7 -- 75
2020-06-15 12:00:00 19 8 Norte 11 Norte 0 1015.6 -- 78
2020-06-15 11:00:00 19.3 5 Norte 13 Sur 0 1015.2 -- 75
2020-06-15 10:00:00 18.1 4 Sudoeste 9 Oeste 0 1015.3 -- 77
2020-06-15 09:00:00 16.5 6 Sur 15 Sudeste 0 1015 -- 87
2020-06-15 08:00:00 15.4 13 Sudeste 17 Sudeste 0 1014.8 -- 89
2020-06-15 07:00:00 15.4 10 Sur 15 Sur 0 1014.5 -- 89
2020-06-15 06:00:00 16 6 Sur 10 Sur 0 1014.5 -- 85
2020-06-15 05:00:00 16.1 6 Sur 10 Sur 0 1014.4 -- 81
2020-06-15 04:00:00 16.1 8 Sur 13 Sur 0 1014.5 -- 81
2020-06-15 03:00:00 16 11 Sur 15 Sur 0 1014.9 -- 81
2020-06-15 02:00:00 16.1 9 Sudoeste 16 Sur 0 1015.2 -- 82
2020-06-15 01:00:00 15.9 10 Sur 16 Sur 0 1015.4 -- 85
2020-06-15 00:00:00 16.2 7 Sudoeste 13 Sudoeste 0 1015.8 -- 83
2020-06-14 23:00:00 16.1 8 Oeste 18 Oeste 0 1015.6 -- 82
2020-06-14 22:00:00 16.1 12 Oeste 24 Oeste 0 1015.4 -- 83
2020-06-14 21:00:00 16.6 17 Noroeste 26 Noroeste 0 1015.2 -- 82
2020-06-14 20:00:00 17 20 Noroeste 29 Noroeste 0 1014.9 -- 84
2020-06-14 19:00:00 18.2 9 Noroeste 16 Noroeste 0 1014.2 -- 67
2020-06-14 18:00:00 18.7 8 Noroeste 13 Norte 0 1013.9 -- 62
2020-06-14 17:00:00 19 6 Norte 13 Norte 0 1013.7 -- 62
2020-06-14 16:00:00 19.4 8 Norte 26 Norte 0 1013.4 -- 61
2020-06-14 15:00:00 18.9 17 Norte 24 Norte 0 1013.4 -- 65
2020-06-14 14:00:00 19.1 13 Noroeste 17 Norte 0 1013.5 -- 59
2020-06-14 13:00:00 19.5 8 Noroeste 15 Noroeste 0 1013.3 -- 63
2020-06-14 12:00:00 19.2 8 Noroeste 14 Noroeste 0 1012.9 -- 67
2020-06-14 11:00:00 19.1 4 Nordeste 9 Nordeste 0 1012.7 -- 73
2020-06-14 10:00:00 17.2 4 Norte 8 Norte 0 1012.6 -- 83
2020-06-14 09:00:00 16.3 3 Norte 10 Sur 0 1012.1 -- 82
2020-06-14 08:00:00 14.8 6 Sur 15 Sur 0 1011.8 -- 88
2020-06-14 07:00:00 14.3 12 Sur 15 Sur 0 1011.7 -- 89
2020-06-14 06:00:00 14.6 8 Sur 14 Sur 0 1011.7 -- 87
2020-06-14 05:00:00 14.7 11 Sur 15 Sur 0 1011.8 -- 90
2020-06-14 04:00:00 14.8 10 Sur 13 Sudeste 0 1011.9 -- 89
2020-06-14 03:00:00 15.3 7 Sudeste 11 Sur 0 1012.1 -- 86
2020-06-14 02:00:00 15.5 10 Sur 12 Sur 0 1012.1 -- 85
2020-06-14 01:00:00 15.4 9 Sur 14 Sur 0 1012.1 -- 84
2020-06-14 00:00:00 15.6 7 Sudoeste 10 Sudoeste 0 1012 -- 79
2020-06-13 23:00:00 15.5 4 Sudoeste 10 Oeste 0 1011.8 -- 81
2020-06-13 22:00:00 15.8 6 Oeste 17 Noroeste 0 1010.8 -- 78
2020-06-13 21:00:00 16 11 Noroeste 19 Noroeste 0 1010.4 -- 81
2020-06-13 20:00:00 17.3 8 Noroeste 17 Oeste 0 1009.9 -- 72
2020-06-13 19:00:00 17.6 9 Oeste 17 Noroeste 0 1009.4 -- 74
2020-06-13 18:00:00 17.4 8 Oeste 19 Noroeste 0 1009.1 -- 75
2020-06-13 17:00:00 18 7 Noroeste 13 Noroeste 0 1008.7 -- 73
2020-06-13 16:00:00 17.6 8 Noroeste 22 Noroeste 0 1008.3 -- 77
2020-06-13 15:00:00 17.8 13 Noroeste 20 Noroeste 0 1007.7 -- 74
2020-06-13 14:00:00 18.5 13 Noroeste 23 Oeste 0 1007.3 -- 65
2020-06-13 13:00:00 19.1 13 Noroeste 20 Noroeste 0 1006.9 -- 64
2020-06-13 12:00:00 18.2 13 Oeste 20 Oeste 0 1006.6 -- 66
2020-06-13 11:00:00 17.1 9 Sudoeste 15 Sudoeste 0 1005.9 -- 69
2020-06-13 10:00:00 15.9 9 Oeste 31 Oeste 0 1005.3 -- 76
2020-06-13 09:00:00 15.9 22 Oeste 40 Oeste 0 1004.5 -- 75
2020-06-13 08:00:00 14.8 14 Sudoeste 33 Oeste 0 1003.6 -- 82
2020-06-13 07:00:00 15.1 21 Oeste 32 Oeste 0 1002.7 -- 83
2020-06-13 06:00:00 14.8 11 Sudoeste 24 Oeste 0 1001.8 -- 75
2020-06-13 05:00:00 14.5 16 Sudoeste 24 Sudoeste 0 1001.3 -- 77
2020-06-13 04:00:00 13.9 12 Sudoeste 29 Sudoeste 0 1001 -- 84
2020-06-13 03:00:00 13.4 10 Sudoeste 15 Sudoeste 0.2 1001.1 -- 94
2020-06-13 02:00:00 13.6 8 Oeste 49 Noroeste 5.4 1001.2 -- 95
2020-06-13 01:00:00 14.9 29 Noroeste 43 Noroeste 0.6 1000.5 -- 93
2020-06-13 00:00:00 15.1 22 Oeste 36 Oeste 0 1000.4 -- 88
2020-06-12 23:00:00 15.1 18 Oeste 30 Oeste 0 999.8 -- 86
2020-06-12 22:00:00 15 11 Sudoeste 15 Sudoeste 0 999.2 -- 72
2020-06-12 21:00:00 15.9 12 Oeste 19 Oeste 0 998.6 -- 69
2020-06-12 20:00:00 17.4 9 Oeste 18 Oeste 0 998.2 -- 61
2020-06-12 19:00:00 17 14 Oeste 27 Oeste 0 997.8 -- 64
2020-06-12 18:00:00 15.4 11 Sudoeste 26 Oeste 0 997.5 -- 78
2020-06-12 17:00:00 12.8 17 Oeste 65 Oeste 2 997.1 -- 89
2020-06-12 16:00:00 15.5 36 Oeste 57 Oeste 0 996.4 -- 74
2020-06-12 15:00:00 16.8 36 Noroeste 51 Oeste 0 995.5 -- 68
2020-06-12 14:00:00 16.9 31 Oeste 55 Oeste 0 995.4 -- 65
2020-06-12 13:00:00 16.6 38 Oeste 65 Oeste 0 994.9 -- 66
2020-06-12 12:00:00 15.4 44 Oeste 69 Oeste 0 994.4 -- 67
2020-06-12 11:00:00 15 46 Oeste 71 Oeste 0 994 -- 66
2020-06-12 10:00:00 15.5 37 Oeste 55 Oeste 0 993.8 -- 69
2020-06-12 09:00:00 16 34 Oeste 59 Oeste 0 993.1 -- 58
2020-06-12 08:00:00 14.5 42 Oeste 61 Oeste 0 992.7 -- 69
2020-06-12 07:00:00 14 35 Oeste 70 Oeste 0 993.1 -- 73
2020-06-12 06:00:00 14 42 Oeste 69 Oeste 0.4 992.2 -- 82
2020-06-12 05:00:00 14.6 19 Sudoeste 41 Sur 0 991.2 -- 60
2020-06-12 04:00:00 14.3 26 Sur 40 Sur 0.2 990.8 -- 60
2020-06-12 03:00:00 13.7 24 Sur 36 Sur 0 991.2 -- 66
2020-06-12 02:00:00 11.9 18 Sur 29 Sudeste 0 992.5 -- 80
2020-06-12 01:00:00 11.2 18 Sudeste 28 Sudeste 0 994.3 -- 84
2020-06-12 00:00:00 10.9 21 Sudeste 28 Sudeste 0 995.4 -- 91
2020-06-11 23:00:00 11 17 Sur 25 Sur 0 996.8 -- 93
2020-06-11 22:00:00 11.5 17 Sur 20 Sur 0.4 997.3 -- 93
2020-06-11 21:00:00 12 7 Sur 50 Oeste 5.6 998 -- 92
2020-06-11 20:00:00 12.7 24 Oeste 52 Noroeste 0.8 998.1 -- 85
2020-06-11 19:00:00 14 28 Oeste 48 Noroeste 0.4 997.8 -- 74
2020-06-11 18:00:00 14.7 32 Noroeste 46 Noroeste 0.2 997.9 -- 78
2020-06-11 17:00:00 14.1 22 Oeste 39 Oeste 0 998.5 -- 80
2020-06-11 16:00:00 14.2 22 Oeste 40 Oeste 0 998.9 -- 85
2020-06-11 15:00:00 13.9 24 Oeste 46 Oeste 0.6 999.4 -- 90
2020-06-11 14:00:00 13.7 28 Oeste 57 Noroeste 1.2 999.4 -- 89
2020-06-11 13:00:00 13.3 35 Noroeste 56 Noroeste 0.8 999.7 -- 92
2020-06-11 12:00:00 14.4 28 Noroeste 57 Noroeste 0.8 999.1 -- 95
2020-06-11 11:00:00 16.6 21 Oeste 47 Oeste 1 998.6 -- 84
2020-06-11 10:00:00 16.4 14 Sudoeste 26 Sudoeste 0 999 -- 78
2020-06-11 09:00:00 15.1 15 Sur 22 Sur 0 999.5 -- 84
2020-06-11 08:00:00 14.5 8 Sudoeste 24 Oeste 0 1000.7 -- 85
2020-06-11 07:00:00 14.9 9 Sudoeste 18 Oeste 0 1001.5 -- 80
2020-06-11 06:00:00 15 9 Sur 13 Sudoeste 0 1002 -- 82
2020-06-11 05:00:00 14.9 8 Sudoeste 14 Oeste 0 1002.9 -- 83
2020-06-11 04:00:00 14.9 9 Sudoeste 15 Sudoeste 0 1003.9 -- 85
2020-06-11 03:00:00 15 7 Sudoeste 10 Sudoeste 0 1004.9 -- 85
2020-06-11 02:00:00 15.2 6 Sudoeste 11 Sudoeste 0 1006.3 -- 85
2020-06-11 01:00:00 15.3 7 Sudoeste 12 Sudoeste 0 1007.4 -- 84
2020-06-11 00:00:00 15.4 6 Sudoeste 9 Oeste 0 1008.2 -- 83
2020-06-10 23:00:00 15.5 5 Oeste 13 Noroeste 0 1008.8 -- 82
2020-06-10 22:00:00 15.7 7 Oeste 12 Noroeste 0 1008.8 -- 82
2020-06-10 21:00:00 16 6 Oeste 11 Norte 0 1009.1 -- 81
2020-06-10 20:00:00 16.2 8 Noroeste 12 Norte 0 1009.6 -- 80
2020-06-10 19:00:00 16.7 6 Noroeste 16 Noroeste 0 1009.9 -- 77
2020-06-10 18:00:00 16.8 10 Norte 16 Noroeste 0 1010.4 -- 77
2020-06-10 17:00:00 17.5 8 Norte 17 Noroeste 0 1010.8 -- 74
2020-06-10 16:00:00 17.2 11 Norte 16 Noroeste 0 1011.1 -- 77
2020-06-10 15:00:00 17.6 8 Norte 17 Noroeste 0 1011.4 -- 73
2020-06-10 14:00:00 17.4 10 Noroeste 16 Noroeste 0 1012.1 -- 77
2020-06-10 13:00:00 17.1 8 Noroeste 14 Noroeste 0 1012.2 -- 78
2020-06-10 12:00:00 17.4 9 Noroeste 18 Noroeste 0 1012.5 -- 79
2020-06-10 11:00:00 17.3 11 Oeste 16 Noroeste 0 1012.6 -- 77
2020-06-10 10:00:00 15.7 7 Sudoeste 14 Sudoeste 0 1012.8 -- 77
2020-06-10 09:00:00 15 10 Sudoeste 17 Sudoeste 0 1012.7 -- 76
2020-06-10 08:00:00 14.1 10 Sudoeste 18 Sudoeste 0 1012.9 -- 79
2020-06-10 07:00:00 13.7 10 Sudoeste 16 Sudoeste 0 1013.1 -- 80
2020-06-10 06:00:00 13.4 13 Sur 19 Sur 0.2 1012.9 -- 82
2020-06-10 05:00:00 14 14 Sur 20 Sudoeste 0 1013.2 -- 80
2020-06-10 04:00:00 13.9 13 Sudoeste 20 Sudoeste 0.2 1013.6 -- 83
2020-06-10 03:00:00 13.7 15 Sur 23 Sur 0 1014 -- 84
2020-06-10 02:00:00 14.2 13 Sudoeste 23 Sudoeste 0 1014.4 -- 81
2020-06-10 01:00:00 14.4 9 Sudoeste 17 Sudoeste 0 1014.8 -- 82
2020-06-10 00:00:00 14.7 10 Sudoeste 16 Sudoeste 0 1014.9 -- 81